KMCB/MCB METAR and TAF weather

Enter ICAO airport designator
Station Type Date Time Source
KMCB METAR 2020/09/22 20:53 UTC NOAA

KMCB 222053Z AUTO 11005KT 10SM OVC019 23/21 A3001 RMK AO2 SLP157 60002 T02330206 58023


Station Type Date Time Source
KMCB Decoded METAR 2020/09/22 20:53 UTC NOAA

MCCOMB/PIKE COUNTY AIRPORT, MS, United States (KMCB) 31-11N 90-28W 124M
Sep 22, 2020 - 04:53 PM EDT / 2020.09.22 2053 UTC
Wind: from the ESE (110 degrees) at 6 MPH (5 KT):0
Visibility: 10 mile(s):0
Sky conditions: overcast
Temperature: 73.9 F (23.3 C)
Dew Point: 69.1 F (20.6 C)
Relative Humidity: 84%
Pressure (altimeter): 30.01 in. Hg (1016 hPa)
Pressure tendency: 0.07 inches (2.3 hPa) lower than three hours ago
ob: KMCB 222053Z AUTO 11005KT 10SM OVC019 23/21 A3001 RMK AO2 SLP157 60002 T02330206 58023
cycle: 21

Station Type Date Time Source
KMCB TAF 2020/09/22 18:27 UTC NOAA

TAF KMCB 221724Z 2218/2318 10008G15KT P6SM BKN019 OVC030
FM222300 10006KT P6SM SHRA BKN030
FM230600 09008KT P6SM VCSH BKN015
FM230900 10008KT P6SM VCSH OVC008
FM231200 09008KT P6SM OVC008
FM231600 11011G22KT P6SM BKN008

Example: see airport list